Time;durP1;ratioP1;P1;durP2;ratioP2;P2;SDS_P1;SDS_P2;PMS_P1;PMS_P2;Temp;Humidity;BMP_temperature;BMP_pressure;BME280_temperature;BME280_humidity;BME280_pressure;Samples;Min_cycle;Max_cycle;Signal;HPM_P1;HPM_P2
2022/12/15 00:40:03;;;;;;;;;;;18.20;40.50;;;;;;7364812;19;19926;-57
2022/12/15 00:42:31;;;;;;;;;;;18.20;40.50;;;;;;7352432;19;20262;-54
2022/12/15 00:44:57;;;;;;;;;;;18.20;40.60;;;;;;7353948;19;20257;-58
2022/12/15 00:47:22;;;;;;;;;;;18.20;40.60;;;;;;7357656;19;19975;-57
2022/12/15 01:20:12;;;;;;;;;;;18.50;40.30;;;;;;7371691;19;19925;-59
2022/12/15 01:22:38;;;;;;;;;;;18.50;40.30;;;;;;7361448;19;19915;-55
2022/12/15 01:25:05;;;;;;;;;;;18.40;40.30;;;;;;7357050;19;19919;-56
2022/12/15 01:27:30;;;;;;;;;;;18.40;40.10;;;;;;7368607;19;19915;-54
2022/12/15 01:29:55;;;;;;;;;;;18.40;40.30;;;;;;7362045;19;19972;-58
2022/12/15 01:32:21;;;;;;;;;;;18.30;40.30;;;;;;7369932;19;19922;-58
2022/12/15 01:34:46;;;;;;;;;;;18.30;40.30;;;;;;7361902;19;19915;-57
2022/12/15 01:37:12;;;;;;;;;;;18.30;40.40;;;;;;7361701;19;19919;-56
2022/12/15 01:42:21;;;;;;;;;;;18.30;40.50;;;;;;7367088;19;19952;-58
2022/12/15 01:44:49;;;;;;;;;;;18.40;40.30;;;;;;7369623;19;19915;-58
2022/12/15 01:47:15;;;;;;;;;;;18.40;40.40;;;;;;7375849;19;20300;-58
2022/12/15 01:49:41;;;;;;;;;;;18.40;40.40;;;;;;7364097;19;19911;-56
2022/12/15 01:52:08;;;;;;;;;;;18.40;40.40;;;;;;7369349;19;20654;-58
2022/12/15 01:54:54;;;;;;;;;;;18.40;40.40;;;;;;7372195;19;20344;-59
2022/12/15 01:57:29;;;;;;;;;;;18.40;40.30;;;;;;7373733;19;19915;-56
2022/12/15 01:59:56;;;;;;;;;;;18.40;40.20;;;;;;7373295;19;19923;-56
2022/12/15 02:02:23;;;;;;;;;;;18.50;40.30;;;;;;7361392;19;19959;-58
2022/12/15 02:04:49;;;;;;;;;;;18.50;40.30;;;;;;7361925;19;21803;-57
2022/12/15 02:07:15;;;;;;;;;;;18.50;40.00;;;;;;7364624;19;22291;-57
2022/12/15 02:09:42;;;;;;;;;;;18.50;40.10;;;;;;7365671;19;19925;-52
2022/12/15 02:12:26;;;;;;;;;;;18.50;40.10;;;;;;7375185;19;19931;-56
2022/12/15 02:15:07;;;;;;;;;;;18.50;40.10;;;;;;7370721;19;19919;-57
2022/12/15 02:17:55;;;;;;;;;;;18.40;40.20;;;;;;7371105;19;19933;-57
2022/12/15 02:20:44;;;;;;;;;;;18.40;40.20;;;;;;7371003;19;19918;-58
2022/12/15 02:23:19;;;;;;;;;;;18.40;40.10;;;;;;7364009;19;20030;-54
2022/12/15 02:26:02;;;;;;;;;;;18.40;40.10;;;;;;7362004;19;19918;-57
2022/12/15 02:28:38;;;;;;;;;;;18.30;40.10;;;;;;7372026;19;19927;-58
2022/12/15 02:33:58;;;;;;;;;;;18.30;40.10;;;;;;7371787;19;20572;-57
2022/12/15 02:36:30;;;;;;;;;;;18.30;40.10;;;;;;7375966;19;19929;-57
2022/12/15 02:38:55;;;;;;;;;;;18.40;40.30;;;;;;7351629;19;19922;-54
2022/12/15 02:41:40;;;;;;;;;;;18.40;40.30;;;;;;7374523;19;20835;-58
2022/12/15 02:44:09;;;;;;;;;;;18.40;40.20;;;;;;7373449;19;19942;-57
2022/12/15 02:46:39;;;;;;;;;;;18.40;40.10;;;;;;7373464;19;21640;-56
2022/12/15 02:49:23;;;;;;;;;;;18.40;40.10;;;;;;7376928;19;19956;-55
2022/12/15 02:52:01;;;;;;;;;;;18.50;40.10;;;;;;7373128;19;19922;-58
2022/12/15 02:54:29;;;;;;;;;;;18.50;40.70;;;;;;7373385;19;19930;-55
2022/12/15 02:57:11;;;;;;;;;;;18.50;40.10;;;;;;7371017;19;19922;-58
2022/12/15 02:59:40;;;;;;;;;;;18.50;40.00;;;;;;7369385;19;19949;-57
2022/12/15 03:02:07;;;;;;;;;;;18.50;40.00;;;;;;7357598;19;19946;-57
2022/12/15 03:04:33;;;;;;;;;;;18.50;40.00;;;;;;7363565;19;19922;-56
2022/12/15 03:07:02;;;;;;;;;;;18.50;40.00;;;;;;7363869;19;19929;-57
2022/12/15 03:09:29;;;;;;;;;;;18.50;40.00;;;;;;7365412;19;19918;-56
2022/12/15 03:11:54;;;;;;;;;;;18.40;40.00;;;;;;7367765;19;19911;-57
2022/12/15 03:14:20;;;;;;;;;;;18.40;40.10;;;;;;7368171;19;19931;-57
2022/12/15 03:16:45;;;;;;;;;;;18.40;40.10;;;;;;7359578;19;19927;-58
2022/12/15 03:19:10;;;;;;;;;;;18.40;40.10;;;;;;7353971;19;19907;-57
2022/12/15 03:21:36;;;;;;;;;;;18.30;40.00;;;;;;7359263;19;19934;-59
2022/12/15 03:24:01;;;;;;;;;;;18.40;40.10;;;;;;7374175;19;19934;-55
2022/12/15 03:26:27;;;;;;;;;;;18.30;40.10;;;;;;7360296;19;19918;-58
2022/12/15 03:28:52;;;;;;;;;;;18.30;40.10;;;;;;7362188;19;19914;-56
2022/12/15 03:31:18;;;;;;;;;;;18.30;40.10;;;;;;7372108;19;20653;-58
2022/12/15 03:33:43;;;;;;;;;;;18.30;40.10;;;;;;7365818;19;19931;-58
2022/12/15 03:36:09;;;;;;;;;;;18.40;40.10;;;;;;7371167;19;19930;-59
2022/12/15 03:38:34;;;;;;;;;;;18.40;40.10;;;;;;7367949;19;19914;-58
2022/12/15 03:40:59;;;;;;;;;;;18.40;40.10;;;;;;7372106;19;19926;-54
2022/12/15 03:43:25;;;;;;;;;;;18.40;40.00;;;;;;7371075;19;19919;-57
2022/12/15 03:45:50;;;;;;;;;;;18.40;40.00;;;;;;7368212;19;19923;-58
2022/12/15 03:48:16;;;;;;;;;;;18.50;40.10;;;;;;7371623;19;19929;-56
2022/12/15 03:50:41;;;;;;;;;;;18.50;40.00;;;;;;7365867;19;19911;-58
2022/12/15 03:53:07;;;;;;;;;;;18.50;40.00;;;;;;7355970;19;19915;-58
2022/12/15 03:55:33;;;;;;;;;;;18.40;40.00;;;;;;7368763;19;19921;-55
2022/12/15 03:57:59;;;;;;;;;;;18.40;40.00;;;;;;7378100;19;19914;-57
2022/12/15 04:00:25;;;;;;;;;;;18.40;39.90;;;;;;7361626;19;19915;-58
2022/12/15 04:02:51;;;;;;;;;;;18.40;39.90;;;;;;7358164;19;19927;-53
2022/12/15 04:05:21;;;;;;;;;;;18.30;39.90;;;;;;7362901;19;19970;-54
2022/12/15 04:07:46;;;;;;;;;;;18.30;39.90;;;;;;7353610;19;19923;-59
2022/12/15 04:10:12;;;;;;;;;;;18.30;39.90;;;;;;7363912;19;19922;-57
2022/12/15 04:12:38;;;;;;;;;;;18.30;40.00;;;;;;7333374;19;19962;-58
2022/12/15 04:15:05;;;;;;;;;;;18.30;40.00;;;;;;7361532;19;19922;-58
2022/12/15 04:17:30;;;;;;;;;;;18.30;40.10;;;;;;7371863;19;20703;-55
2022/12/15 04:20:10;;;;;;;;;;;18.30;40.10;;;;;;7371920;19;19911;-58
2022/12/15 04:22:37;;;;;;;;;;;18.30;40.10;;;;;;7344225;19;19929;-58
2022/12/15 05:33:32;;;;;;;;;;;18.30;39.70;;;;;;7343793;19;20687;-55
2022/12/15 05:35:58;;;;;;;;;;;18.30;39.80;;;;;;7345584;19;19915;-53
2022/12/15 05:38:23;;;;;;;;;;;18.40;39.80;;;;;;7336662;19;19918;-49
2022/12/15 05:40:49;;;;;;;;;;;18.40;39.80;;;;;;7359846;19;20026;-57
2022/12/15 05:43:14;;;;;;;;;;;18.50;39.90;;;;;;7352199;19;19943;-59
2022/12/15 05:45:40;;;;;;;;;;;18.60;39.50;;;;;;7349835;19;19927;-58
2022/12/15 05:48:05;;;;;;;;;;;18.60;39.50;;;;;;7346703;19;19915;-58
2022/12/15 05:50:30;;;;;;;;;;;18.70;39.50;;;;;;7340005;19;19919;-57
2022/12/15 05:52:56;;;;;;;;;;;18.70;39.70;;;;;;7345907;19;19926;-58
2022/12/15 05:55:22;;;;;;;;;;;18.70;39.70;;;;;;7362709;19;20037;-59
2022/12/15 05:57:51;;;;;;;;;;;18.80;39.60;;;;;;7370393;19;19939;-58
2022/12/15 06:00:17;;;;;;;;;;;18.80;39.40;;;;;;7332492;19;20396;-53
2022/12/15 06:02:42;;;;;;;;;;;18.80;39.60;;;;;;7363281;19;20025;-58
2022/12/15 06:05:08;;;;;;;;;;;18.80;39.60;;;;;;7352664;19;19959;-63
2022/12/15 06:07:33;;;;;;;;;;;18.70;40.00;;;;;;7370622;19;19931;-63
2022/12/15 06:09:59;;;;;;;;;;;18.70;39.90;;;;;;7379691;19;19915;-63
2022/12/15 06:12:24;;;;;;;;;;;18.60;39.90;;;;;;7363775;19;19974;-62
2022/12/15 06:14:50;;;;;;;;;;;18.50;39.90;;;;;;7371597;19;19911;-62
2022/12/15 06:17:15;;;;;;;;;;;18.50;40.00;;;;;;7365957;19;20000;-63
2022/12/15 06:19:40;;;;;;;;;;;18.50;39.90;;;;;;7376007;19;19982;-62
2022/12/15 06:22:06;;;;;;;;;;;18.50;40.00;;;;;;7376854;19;20651;-63
2022/12/15 06:24:31;;;;;;;;;;;18.50;40.00;;;;;;7365046;19;20243;-63
2022/12/15 06:26:58;;;;;;;;;;;18.50;40.00;;;;;;7351277;19;19923;-62
2022/12/15 06:29:23;;;;;;;;;;;18.50;39.80;;;;;;7368155;19;19919;-63
2022/12/15 06:31:49;;;;;;;;;;;18.60;40.10;;;;;;7366182;19;19934;-63
2022/12/15 06:34:15;;;;;;;;;;;18.60;40.10;;;;;;7363684;19;19911;-63
2022/12/15 06:36:40;;;;;;;;;;;18.70;40.10;;;;;;7365972;19;20372;-63
2022/12/15 06:39:08;;;;;;;;;;;18.80;39.90;;;;;;7369600;19;19911;-63
2022/12/15 06:41:33;;;;;;;;;;;18.70;39.70;;;;;;7367835;19;19921;-61
2022/12/15 06:43:59;;;;;;;;;;;18.60;39.70;;;;;;7327272;19;19918;-62
2022/12/15 06:46:26;;;;;;;;;;;18.50;39.70;;;;;;7359069;19;19915;-62
2022/12/15 06:48:52;;;;;;;;;;;18.50;39.80;;;;;;7371313;19;19961;-63
2022/12/15 06:51:18;;;;;;;;;;;18.50;39.80;;;;;;7348064;19;20439;-60
2022/12/15 06:53:47;;;;;;;;;;;18.40;40.00;;;;;;7356344;19;19950;-63
2022/12/15 06:56:17;;;;;;;;;;;18.40;40.00;;;;;;7346445;19;19977;-63
2022/12/15 06:58:43;;;;;;;;;;;18.40;40.00;;;;;;7347539;19;19915;-63
2022/12/15 07:01:09;;;;;;;;;;;18.50;39.90;;;;;;7358015;19;19921;-63
2022/12/15 07:03:35;;;;;;;;;;;18.50;40.00;;;;;;7349234;19;19923;-63
2022/12/15 07:06:02;;;;;;;;;;;18.50;40.00;;;;;;7352450;19;20334;-62
2022/12/15 07:08:28;;;;;;;;;;;18.60;40.10;;;;;;7355602;19;19926;-63
2022/12/15 07:10:53;;;;;;;;;;;18.60;39.80;;;;;;7362652;19;19919;-62
2022/12/15 07:13:19;;;;;;;;;;;18.60;39.60;;;;;;7375711;19;20332;-63
2022/12/15 07:15:44;;;;;;;;;;;18.60;39.50;;;;;;7365010;19;20637;-63
2022/12/15 07:18:09;;;;;;;;;;;18.70;39.60;;;;;;7364397;19;19923;-62
2022/12/15 07:20:35;;;;;;;;;;;18.70;39.40;;;;;;7363610;19;19917;-63
2022/12/15 07:23:06;;;;;;;;;;;18.70;39.40;;;;;;7371039;19;19918;-62
2022/12/15 07:25:32;;;;;;;;;;;18.70;39.40;;;;;;7384457;19;20485;-63
2022/12/15 07:27:58;;;;;;;;;;;18.70;39.40;;;;;;7379290;19;20000;-63
2022/12/15 07:30:23;;;;;;;;;;;18.70;39.40;;;;;;7377649;19;20020;-63
2022/12/15 07:32:48;;;;;;;;;;;18.70;39.40;;;;;;7379158;19;19940;-62
2022/12/15 07:35:14;;;;;;;;;;;18.70;39.60;;;;;;7379066;19;19918;-63
2022/12/15 07:37:39;;;;;;;;;;;18.60;39.50;;;;;;7373062;19;19915;-63
2022/12/15 07:40:05;;;;;;;;;;;18.60;39.70;;;;;;7346209;19;19919;-63
2022/12/15 07:42:31;;;;;;;;;;;18.60;40.30;;;;;;7364401;19;19954;-63
2022/12/15 07:44:56;;;;;;;;;;;18.50;39.80;;;;;;7360879;19;19919;-63
2022/12/15 07:47:22;;;;;;;;;;;18.50;39.80;;;;;;7358703;19;19930;-62
2022/12/15 07:49:48;;;;;;;;;;;18.50;39.90;;;;;;7356059;19;19984;-62
2022/12/15 07:52:13;;;;;;;;;;;18.50;40.00;;;;;;7342821;19;20282;-62
2022/12/15 07:54:39;;;;;;;;;;;18.50;39.80;;;;;;7367687;19;20515;-64
2022/12/15 07:57:06;;;;;;;;;;;18.50;39.70;;;;;;7365334;19;19927;-62
2022/12/15 07:59:34;;;;;;;;;;;18.60;39.60;;;;;;7351839;19;19926;-62
2022/12/15 08:02:02;;;;;;;;;;;18.50;39.50;;;;;;7358615;19;19918;-61
2022/12/15 08:04:28;;;;;;;;;;;18.50;39.70;;;;;;7342904;19;20435;-63
2022/12/15 08:06:54;;;;;;;;;;;18.40;40.00;;;;;;7351060;19;19930;-63
2022/12/15 08:09:19;;;;;;;;;;;18.40;39.80;;;;;;7378061;19;19910;-62
2022/12/15 08:11:45;;;;;;;;;;;18.40;39.50;;;;;;7320604;19;19925;-63
2022/12/15 08:14:11;;;;;;;;;;;18.40;39.80;;;;;;7335998;19;19919;-63
2022/12/15 08:16:36;;;;;;;;;;;18.40;39.70;;;;;;7359027;19;19940;-63
2022/12/15 08:19:04;;;;;;;;;;;18.50;39.80;;;;;;7368782;19;20549;-63
2022/12/15 08:21:30;;;;;;;;;;;18.50;39.80;;;;;;7361268;19;19918;-63
2022/12/15 08:23:56;;;;;;;;;;;18.50;39.80;;;;;;7354876;19;19974;-62
2022/12/15 08:26:22;;;;;;;;;;;18.50;39.80;;;;;;7356020;19;20002;-62
2022/12/15 08:28:48;;;;;;;;;;;18.60;39.80;;;;;;7358430;19;19928;-62
2022/12/15 08:31:17;;;;;;;;;;;18.60;39.80;;;;;;7371970;19;20763;-63
2022/12/15 08:33:43;;;;;;;;;;;18.60;39.80;;;;;;7349712;19;19927;-63
2022/12/15 08:36:10;;;;;;;;;;;18.50;39.80;;;;;;7362721;19;19933;-63
2022/12/15 08:38:37;;;;;;;;;;;18.60;39.90;;;;;;7364451;19;19922;-63
2022/12/15 08:41:07;;;;;;;;;;;18.60;39.90;;;;;;7344662;19;19918;-63
2022/12/15 08:43:32;;;;;;;;;;;18.60;39.90;;;;;;7353464;19;19915;-63
2022/12/15 08:45:58;;;;;;;;;;;18.70;39.80;;;;;;7348199;19;19943;-63
2022/12/15 08:48:24;;;;;;;;;;;18.70;39.60;;;;;;7362041;19;20054;-62
2022/12/15 08:50:49;;;;;;;;;;;18.60;39.20;;;;;;7365441;19;19915;-63
2022/12/15 08:53:15;;;;;;;;;;;18.60;39.30;;;;;;7371033;19;19922;-62
2022/12/15 08:55:40;;;;;;;;;;;18.70;39.50;;;;;;7365225;19;19915;-61
2022/12/15 08:58:06;;;;;;;;;;;18.70;39.50;;;;;;7340985;19;19939;-60
2022/12/15 09:00:31;;;;;;;;;;;18.70;39.40;;;;;;7335940;19;19998;-63
2022/12/15 09:02:57;;;;;;;;;;;18.70;39.60;;;;;;7366696;19;19918;-62
2022/12/15 09:05:23;;;;;;;;;;;18.70;39.50;;;;;;7366718;19;19929;-62
2022/12/15 09:07:53;;;;;;;;;;;18.70;39.60;;;;;;7318803;19;19922;-62
2022/12/15 09:10:18;;;;;;;;;;;18.60;40.00;;;;;;7363677;19;19923;-63
2022/12/15 09:12:45;;;;;;;;;;;18.60;39.80;;;;;;7346230;19;20238;-61
2022/12/15 09:15:11;;;;;;;;;;;18.60;39.90;;;;;;7352424;19;19947;-62
2022/12/15 09:17:36;;;;;;;;;;;18.70;40.50;;;;;;7337387;19;20336;-61
2022/12/15 09:20:02;;;;;;;;;;;18.70;40.50;;;;;;7353237;19;19942;-61
2022/12/15 09:22:28;;;;;;;;;;;18.70;40.80;;;;;;7353031;19;19970;-61
2022/12/15 09:24:53;;;;;;;;;;;18.70;40.80;;;;;;7376723;19;19951;-62
2022/12/15 09:27:19;;;;;;;;;;;18.80;40.50;;;;;;7376518;19;20531;-61
2022/12/15 09:29:44;;;;;;;;;;;18.90;40.20;;;;;;7353109;19;19919;-61
2022/12/15 09:32:10;;;;;;;;;;;18.90;40.00;;;;;;7350978;19;19919;-60
2022/12/15 09:34:35;;;;;;;;;;;18.90;39.80;;;;;;7364000;19;19966;-61
2022/12/15 09:37:02;;;;;;;;;;;18.90;39.80;;;;;;7373261;19;20431;-61
2022/12/15 09:39:27;;;;;;;;;;;19.00;39.40;;;;;;7384406;19;20012;-61
2022/12/15 09:41:58;;;;;;;;;;;19.00;39.10;;;;;;7376380;19;19986;-57
2022/12/15 09:44:25;;;;;;;;;;;18.90;39.30;;;;;;7353899;19;19931;-61
2022/12/15 09:46:56;;;;;;;;;;;18.90;39.30;;;;;;7372296;19;19922;-61
2022/12/15 09:49:41;;;;;;;;;;;18.90;39.30;;;;;;7359980;19;19922;-60
2022/12/15 09:52:15;;;;;;;;;;;18.80;39.20;;;;;;7378803;19;19999;-61
2022/12/15 09:54:41;;;;;;;;;;;18.80;39.30;;;;;;7361164;19;19914;-60
2022/12/15 09:57:15;;;;;;;;;;;18.80;39.40;;;;;;7370901;19;20002;-60
2022/12/15 09:59:50;;;;;;;;;;;18.70;39.40;;;;;;7363421;19;19941;-60
2022/12/15 10:02:29;;;;;;;;;;;18.70;39.40;;;;;;7360567;19;20053;-61
2022/12/15 10:04:54;;;;;;;;;;;18.80;39.40;;;;;;7349079;19;19919;-61
2022/12/15 10:07:33;;;;;;;;;;;18.70;39.30;;;;;;7350733;19;19923;-60
2022/12/15 10:10:03;;;;;;;;;;;18.60;39.40;;;;;;7361363;19;19915;-61
2022/12/15 10:12:31;;;;;;;;;;;18.60;39.40;;;;;;7362431;19;19921;-59
2022/12/15 10:15:06;;;;;;;;;;;18.50;40.20;;;;;;7365943;19;19978;-60
2022/12/15 10:17:40;;;;;;;;;;;18.50;39.60;;;;;;7363679;19;19939;-61
2022/12/15 10:20:25;;;;;;;;;;;18.60;39.80;;;;;;7371768;19;20317;-60
2022/12/15 10:22:50;;;;;;;;;;;18.60;39.70;;;;;;7364710;19;19911;-59
2022/12/15 10:25:28;;;;;;;;;;;18.60;39.90;;;;;;7387614;19;19998;-61
2022/12/15 10:28:12;;;;;;;;;;;18.70;39.90;;;;;;7359569;19;20293;-60
2022/12/15 10:31:01;;;;;;;;;;;18.70;39.80;;;;;;7358115;19;19931;-61
2022/12/15 10:33:32;;;;;;;;;;;18.60;39.70;;;;;;7368927;19;19927;-61
2022/12/15 10:35:58;;;;;;;;;;;18.60;39.80;;;;;;7378408;19;20517;-60
2022/12/15 10:38:33;;;;;;;;;;;18.60;39.80;;;;;;7362485;19;19919;-61
2022/12/15 10:41:04;;;;;;;;;;;18.70;39.80;;;;;;7368063;19;19926;-60
2022/12/15 10:43:33;;;;;;;;;;;18.60;40.00;;;;;;7375187;19;20010;-61
2022/12/15 10:46:00;;;;;;;;;;;18.60;39.80;;;;;;7362869;19;19915;-61
2022/12/15 10:48:25;;;;;;;;;;;18.50;40.00;;;;;;7370187;19;19911;-61
2022/12/15 10:50:53;;;;;;;;;;;18.50;40.10;;;;;;7374376;19;19919;-61
2022/12/15 10:53:36;;;;;;;;;;;18.40;40.00;;;;;;7382140;19;20012;-61
2022/12/15 10:56:05;;;;;;;;;;;18.40;40.00;;;;;;7366692;19;20905;-61
2022/12/15 10:58:30;;;;;;;;;;;18.50;40.20;;;;;;7370793;19;19915;-60
2022/12/15 11:01:07;;;;;;;;;;;18.50;40.10;;;;;;7363571;19;19929;-58
2022/12/15 11:03:36;;;;;;;;;;;18.50;40.00;;;;;;7370785;19;19948;-60
2022/12/15 11:06:08;;;;;;;;;;;18.60;40.00;;;;;;7357155;19;19942;-59
2022/12/15 11:08:34;;;;;;;;;;;18.60;39.80;;;;;;7345494;19;19923;-60
2022/12/15 11:14:03;;;;;;;;;;;18.80;40.00;;;;;;7362815;19;19918;-61
2022/12/15 11:16:29;;;;;;;;;;;18.90;39.80;;;;;;7366150;19;19927;-60
2022/12/15 11:19:04;;;;;;;;;;;18.90;39.80;;;;;;7374574;19;20337;-60
2022/12/15 11:21:40;;;;;;;;;;;19.00;39.60;;;;;;7356006;19;21030;-60
2022/12/15 11:24:20;;;;;;;;;;;19.00;39.50;;;;;;7357032;19;19927;-61
2022/12/15 11:27:00;;;;;;;;;;;19.00;39.50;;;;;;7371199;19;19915;-60
2022/12/15 11:29:26;;;;;;;;;;;19.00;39.60;;;;;;7353284;19;19919;-59
2022/12/15 11:31:53;;;;;;;;;;;19.00;39.60;;;;;;7367716;19;20841;-60
2022/12/15 11:34:19;;;;;;;;;;;19.00;39.80;;;;;;7344174;19;20350;-59
2022/12/15 11:36:54;;;;;;;;;;;19.00;39.60;;;;;;7369419;19;19915;-60
2022/12/15 11:39:30;;;;;;;;;;;19.00;39.40;;;;;;7359891;19;19944;-60
2022/12/15 11:42:02;;;;;;;;;;;19.00;39.50;;;;;;7352137;19;19925;-61
2022/12/15 11:44:44;;;;;;;;;;;19.10;39.50;;;;;;7355789;19;19917;-56
2022/12/15 11:47:09;;;;;;;;;;;19.10;39.60;;;;;;7350481;19;19918;-61
2022/12/15 11:49:54;;;;;;;;;;;19.10;39.80;;;;;;7368242;19;20617;-61
2022/12/15 11:52:31;;;;;;;;;;;19.10;39.70;;;;;;7360398;19;19922;-60
2022/12/15 11:55:10;;;;;;;;;;;19.10;39.90;;;;;;7362828;19;19926;-59
2022/12/15 11:57:51;;;;;;;;;;;19.10;39.80;;;;;;7373346;19;19922;-61
2022/12/15 12:00:18;;;;;;;;;;;19.10;39.80;;;;;;7371120;19;19926;-60
2022/12/15 12:03:02;;;;;;;;;;;19.10;39.80;;;;;;7365547;19;19973;-60
2022/12/15 12:05:34;;;;;;;;;;;19.10;39.90;;;;;;7377223;19;19944;-60
2022/12/15 12:08:08;;;;;;;;;;;19.00;40.00;;;;;;7371344;19;19926;-60
2022/12/15 12:10:52;;;;;;;;;;;19.00;40.10;;;;;;7372998;19;19927;-61
2022/12/15 12:13:22;;;;;;;;;;;18.90;40.10;;;;;;7364532;19;19918;-61
2022/12/15 12:16:11;;;;;;;;;;;18.90;40.10;;;;;;7355390;19;19915;-60
2022/12/15 12:18:42;;;;;;;;;;;18.80;40.30;;;;;;7377580;19;19925;-60
2022/12/15 12:21:10;;;;;;;;;;;18.80;40.40;;;;;;7378559;19;19926;-61
2022/12/15 12:23:44;;;;;;;;;;;18.80;40.50;;;;;;7331257;19;19923;-60
2022/12/15 12:26:09;;;;;;;;;;;18.80;40.60;;;;;;7361899;19;19921;-58
2022/12/15 12:28:42;;;;;;;;;;;18.70;40.50;;;;;;7359873;19;19918;-61
2022/12/15 12:31:16;;;;;;;;;;;18.70;40.70;;;;;;7338473;19;19919;-61
2022/12/15 12:33:44;;;;;;;;;;;18.70;40.60;;;;;;7339022;19;20578;-61
2022/12/15 12:36:11;;;;;;;;;;;18.70;40.50;;;;;;7341697;19;19982;-62
2022/12/15 12:38:45;;;;;;;;;;;18.80;40.50;;;;;;7363839;19;19915;-61
2022/12/15 12:41:11;;;;;;;;;;;18.80;40.30;;;;;;7374721;19;19970;-61
2022/12/15 12:43:58;;;;;;;;;;;18.80;40.30;;;;;;7366311;19;19919;-62
2022/12/15 12:46:29;;;;;;;;;;;18.70;40.40;;;;;;7367059;19;19927;-61
2022/12/15 12:49:14;;;;;;;;;;;18.70;40.30;;;;;;7352948;19;19928;-62
2022/12/15 12:51:40;;;;;;;;;;;18.80;41.00;;;;;;7373813;19;19922;-61
2022/12/15 12:54:24;;;;;;;;;;;18.70;40.30;;;;;;7361207;19;19929;-61
2022/12/15 12:56:49;;;;;;;;;;;18.70;40.30;;;;;;7352515;19;19929;-61
2022/12/15 12:59:27;;;;;;;;;;;18.80;40.30;;;;;;7358898;19;19926;-58
2022/12/15 13:01:56;;;;;;;;;;;18.80;40.40;;;;;;7345069;19;19930;-59
2022/12/15 13:04:28;;;;;;;;;;;18.80;40.10;;;;;;7338417;19;19961;-62
2022/12/15 13:06:55;;;;;;;;;;;18.70;40.10;;;;;;7356518;19;19982;-61
2022/12/15 13:09:22;;;;;;;;;;;18.70;40.00;;;;;;7361400;19;20369;-65
2022/12/15 13:11:47;;;;;;;;;;;18.70;40.00;;;;;;7376102;19;19911;-62
2022/12/15 13:14:14;;;;;;;;;;;18.60;40.10;;;;;;7370242;19;20293;-61
2022/12/15 13:16:40;;;;;;;;;;;18.60;40.10;;;;;;7353391;19;19923;-61
2022/12/15 13:19:06;;;;;;;;;;;18.50;40.10;;;;;;7370683;19;20759;-61
2022/12/15 13:21:41;;;;;;;;;;;18.50;40.20;;;;;;7351444;19;19923;-61
2022/12/15 13:24:25;;;;;;;;;;;18.60;40.20;;;;;;7348895;19;19919;-61
2022/12/15 13:26:51;;;;;;;;;;;18.60;40.50;;;;;;7360118;19;20430;-60
2022/12/15 13:29:20;;;;;;;;;;;18.60;40.50;;;;;;7354530;19;19926;-59
2022/12/15 13:31:47;;;;;;;;;;;18.60;40.30;;;;;;7373688;19;19923;-60
2022/12/15 13:34:23;;;;;;;;;;;18.70;40.30;;;;;;7376717;19;19925;-61
2022/12/15 13:36:50;;;;;;;;;;;18.70;40.20;;;;;;7381344;19;20244;-61
2022/12/15 13:39:15;;;;;;;;;;;18.70;40.00;;;;;;7378824;19;19930;-61
2022/12/15 13:41:42;;;;;;;;;;;18.70;40.10;;;;;;7376788;19;19936;-60
2022/12/15 13:44:23;;;;;;;;;;;18.70;40.10;;;;;;7378125;19;19932;-62
2022/12/15 13:46:50;;;;;;;;;;;18.70;40.10;;;;;;7356876;19;20380;-60
2022/12/15 13:49:21;;;;;;;;;;;18.70;40.20;;;;;;7364044;19;19942;-61
2022/12/15 13:51:47;;;;;;;;;;;18.70;40.00;;;;;;7359631;19;19942;-59
2022/12/15 13:54:14;;;;;;;;;;;18.70;40.20;;;;;;7356749;19;19919;-61
2022/12/15 13:56:39;;;;;;;;;;;18.60;40.10;;;;;;7353069;19;19921;-60
2022/12/15 13:59:12;;;;;;;;;;;18.60;40.10;;;;;;7362694;19;20941;-61
2022/12/15 14:01:46;;;;;;;;;;;18.60;40.00;;;;;;7356117;19;19975;-60
2022/12/15 14:04:15;;;;;;;;;;;18.60;40.10;;;;;;7348928;19;19931;-59
2022/12/15 14:06:46;;;;;;;;;;;18.60;40.10;;;;;;7365652;19;19931;-59
2022/12/15 14:09:13;;;;;;;;;;;18.60;40.50;;;;;;7343008;19;19961;-61
2022/12/15 14:11:40;;;;;;;;;;;18.50;40.30;;;;;;7365618;19;19922;-61
2022/12/15 14:14:13;;;;;;;;;;;18.60;40.60;;;;;;7374336;19;19958;-61
2022/12/15 14:16:38;;;;;;;;;;;18.60;40.40;;;;;;7370835;19;19964;-60
2022/12/15 14:19:14;;;;;;;;;;;18.70;40.40;;;;;;7374102;19;19922;-60
2022/12/15 14:21:46;;;;;;;;;;;18.80;40.60;;;;;;7374365;19;19926;-61
2022/12/15 14:24:20;;;;;;;;;;;18.80;40.60;;;;;;7369272;19;19923;-61
2022/12/15 14:26:46;;;;;;;;;;;18.80;40.50;;;;;;7329084;19;19935;-61
2022/12/15 14:29:11;;;;;;;;;;;18.70;40.50;;;;;;7343938;19;19939;-60
2022/12/15 14:31:39;;;;;;;;;;;18.70;40.80;;;;;;7332825;19;19941;-60
2022/12/15 14:34:07;;;;;;;;;;;18.80;41.00;;;;;;7353584;19;19915;-60
2022/12/15 14:36:33;;;;;;;;;;;18.70;40.70;;;;;;7347659;19;19914;-60
2022/12/15 14:39:01;;;;;;;;;;;18.70;40.90;;;;;;7335669;19;19939;-60
2022/12/15 14:41:28;;;;;;;;;;;18.70;41.00;;;;;;7344744;19;19935;-60
2022/12/15 14:44:00;;;;;;;;;;;18.70;41.00;;;;;;7354228;19;19958;-60
2022/12/15 14:46:27;;;;;;;;;;;18.80;41.20;;;;;;7340624;19;19919;-60
2022/12/15 14:49:14;;;;;;;;;;;18.80;41.00;;;;;;7354156;19;19966;-60
2022/12/15 14:51:43;;;;;;;;;;;18.90;40.90;;;;;;7350986;19;20869;-57
2022/12/15 14:54:27;;;;;;;;;;;18.90;40.80;;;;;;7345757;19;19974;-60
2022/12/15 14:56:57;;;;;;;;;;;18.90;40.80;;;;;;7340164;19;20353;-60
2022/12/15 14:59:23;;;;;;;;;;;18.90;40.80;;;;;;7350997;19;19943;-60
2022/12/15 15:01:58;;;;;;;;;;;19.00;41.10;;;;;;7368011;19;19923;-60
2022/12/15 15:04:24;;;;;;;;;;;19.00;41.10;;;;;;7342905;19;19918;-59
2022/12/15 15:06:53;;;;;;;;;;;19.00;40.80;;;;;;7354071;19;20018;-58
2022/12/15 15:09:23;;;;;;;;;;;19.00;40.90;;;;;;7365452;19;19922;-60
2022/12/15 15:11:54;;;;;;;;;;;19.10;40.50;;;;;;7367795;19;20372;-59
2022/12/15 15:14:22;;;;;;;;;;;19.10;41.00;;;;;;7351718;19;20439;-60
2022/12/15 15:17:00;;;;;;;;;;;19.10;40.90;;;;;;7361504;19;20750;-59
2022/12/15 15:19:25;;;;;;;;;;;19.00;41.10;;;;;;7372495;19;20344;-58
2022/12/15 15:21:51;;;;;;;;;;;18.90;41.20;;;;;;7371748;19;19926;-59
2022/12/15 15:24:16;;;;;;;;;;;18.90;41.00;;;;;;7369782;19;19927;-60
2022/12/15 15:26:42;;;;;;;;;;;18.80;41.30;;;;;;7366766;19;19915;-60
2022/12/15 15:29:26;;;;;;;;;;;18.80;41.30;;;;;;7360835;19;19910;-60
2022/12/15 15:31:52;;;;;;;;;;;18.80;41.50;;;;;;7375666;19;20529;-60
2022/12/15 15:34:17;;;;;;;;;;;18.80;41.90;;;;;;7367560;19;19931;-60
2022/12/15 15:36:42;;;;;;;;;;;18.80;42.40;;;;;;7325416;19;19918;-59
2022/12/15 15:39:12;;;;;;;;;;;18.80;42.20;;;;;;7365689;19;19933;-59
2022/12/15 15:41:37;;;;;;;;;;;18.70;42.00;;;;;;7336604;19;19914;-60
2022/12/15 15:44:10;;;;;;;;;;;18.70;42.30;;;;;;7351675;19;20012;-60
2022/12/15 15:46:37;;;;;;;;;;;18.70;42.20;;;;;;7358754;19;20684;-60
2022/12/15 15:49:07;;;;;;;;;;;18.70;42.70;;;;;;7366826;19;19915;-60
2022/12/15 15:51:32;;;;;;;;;;;18.70;42.40;;;;;;7361603;19;19919;-60
2022/12/15 15:54:03;;;;;;;;;;;18.80;42.40;;;;;;7361130;19;19926;-60
2022/12/15 15:56:29;;;;;;;;;;;18.80;42.40;;;;;;7363677;19;19926;-61
2022/12/15 15:58:55;;;;;;;;;;;18.90;42.10;;;;;;7357019;19;20256;-60
2022/12/15 16:01:21;;;;;;;;;;;19.00;42.10;;;;;;7341167;19;19961;-60
2022/12/15 16:03:46;;;;;;;;;;;19.10;41.90;;;;;;7341936;19;20430;-60
2022/12/15 16:06:17;;;;;;;;;;;19.10;41.80;;;;;;7370399;19;19925;-60
2022/12/15 16:08:42;;;;;;;;;;;19.10;41.90;;;;;;7343563;19;19946;-59
2022/12/15 16:11:09;;;;;;;;;;;19.00;41.60;;;;;;7346589;19;19946;-59
2022/12/15 16:13:35;;;;;;;;;;;19.00;41.60;;;;;;7341407;19;19914;-60
2022/12/15 16:16:00;;;;;;;;;;;19.00;41.60;;;;;;7365510;19;19922;-60
2022/12/15 16:18:26;;;;;;;;;;;19.00;41.60;;;;;;7374208;19;19915;-60
2022/12/15 16:20:51;;;;;;;;;;;19.00;41.60;;;;;;7380623;19;20905;-60
2022/12/15 16:23:19;;;;;;;;;;;19.10;41.90;;;;;;7356561;19;21896;-59
2022/12/15 16:25:46;;;;;;;;;;;19.10;41.80;;;;;;7349027;19;19919;-60
2022/12/15 16:28:13;;;;;;;;;;;19.20;41.50;;;;;;7364637;19;19919;-58
2022/12/15 16:30:39;;;;;;;;;;;19.20;41.50;;;;;;7356600;19;19916;-59
2022/12/15 16:33:04;;;;;;;;;;;19.10;41.60;;;;;;7375885;19;19929;-59
2022/12/15 16:35:29;;;;;;;;;;;19.10;41.90;;;;;;7365737;19;19930;-57
2022/12/15 16:37:55;;;;;;;;;;;19.10;42.00;;;;;;7363226;19;23084;-59
2022/12/15 16:40:22;;;;;;;;;;;19.10;42.00;;;;;;7359168;19;19919;-59
2022/12/15 16:42:55;;;;;;;;;;;19.00;41.80;;;;;;7357158;19;19929;-59
2022/12/15 16:45:22;;;;;;;;;;;19.00;42.30;;;;;;7357751;19;19929;-58
2022/12/15 16:47:48;;;;;;;;;;;19.00;42.40;;;;;;7342580;19;19922;-59
2022/12/15 16:50:18;;;;;;;;;;;19.00;42.50;;;;;;7362560;19;20534;-57
2022/12/15 16:52:45;;;;;;;;;;;19.00;42.80;;;;;;7357633;19;19915;-58